Time;durP1;ratioP1;P1;durP2;ratioP2;P2;SDS_P1;SDS_P2;PMS_P1;PMS_P2;Temp;Humidity;BMP_temperature;BMP_pressure;BME280_temperature;BME280_humidity;BME280_pressure;Samples;Min_cycle;Max_cycle;Signal;HPM_P1;HPM_P2
2023/03/05 00:00:09;;;;;;;87.47;38.50;;;;;;;;;;5047739;28;20048;-61
2023/03/05 00:02:35;;;;;;;76.78;37.05;;;;;;;;;;5047702;28;20627;-61
2023/03/05 00:05:01;;;;;;;84.80;38.08;;;;;;;;;;5046049;28;20042;-68
2023/03/05 00:07:27;;;;;;;81.22;39.22;;;;;;;;;;5047696;28;20109;-81
2023/03/05 00:09:53;;;;;;;82.53;39.15;;;;;;;;;;5047439;28;20036;-62
2023/03/05 00:12:19;;;;;;;82.40;38.58;;;;;;;;;;5047361;28;20052;-78
2023/03/05 00:14:45;;;;;;;86.82;39.95;;;;;;;;;;5047470;28;20052;-81
2023/03/05 00:17:11;;;;;;;93.47;42.88;;;;;;;;;;5047237;28;20473;-68
2023/03/05 00:19:37;;;;;;;86.38;41.90;;;;;;;;;;5046735;28;20694;-61
2023/03/05 00:22:03;;;;;;;90.82;40.28;;;;;;;;;;5046988;28;20104;-64
2023/03/05 00:24:29;;;;;;;87.57;40.83;;;;;;;;;;5046638;28;20049;-70
2023/03/05 00:26:55;;;;;;;96.50;42.78;;;;;;;;;;5045746;28;20029;-61
2023/03/05 00:29:21;;;;;;;88.97;40.55;;;;;;;;;;5046895;28;20075;-61
2023/03/05 00:31:47;;;;;;;93.32;39.83;;;;;;;;;;5036456;28;20025;-80
2023/03/05 00:34:15;;;;;;;93.78;38.88;;;;;;;;;;5033491;28;20049;-64
2023/03/05 00:36:42;;;;;;;86.22;38.38;;;;;;;;;;5033711;28;20533;-81
2023/03/05 00:39:08;;;;;;;88.43;39.17;;;;;;;;;;5032957;28;20041;-61
2023/03/05 00:41:34;;;;;;;85.57;37.28;;;;;;;;;;5033377;28;20469;-66
2023/03/05 00:44:00;;;;;;;80.03;37.47;;;;;;;;;;5033498;28;20108;-79
2023/03/05 00:46:26;;;;;;;79.25;37.58;;;;;;;;;;5033393;28;20037;-61
2023/03/05 00:48:53;;;;;;;86.38;37.88;;;;;;;;;;5033148;28;20037;-63
2023/03/05 00:51:20;;;;;;;80.22;35.83;;;;;;;;;;5033528;28;20033;-75
2023/03/05 00:53:46;;;;;;;79.85;37.80;;;;;;;;;;5031918;28;20428;-61
2023/03/05 00:56:12;;;;;;;83.65;36.45;;;;;;;;;;5033509;28;20059;-63
2023/03/05 00:58:38;;;;;;;82.68;36.88;;;;;;;;;;5032093;28;20282;-61
2023/03/05 01:01:05;;;;;;;81.82;36.83;;;;;;;;;;5033633;28;20063;-61
2023/03/05 01:03:32;;;;;;;86.47;37.30;;;;;;;;;;5032989;28;20064;-67
2023/03/05 01:05:58;;;;;;;76.25;36.40;;;;;;;;;;5033074;28;20030;-62
2023/03/05 01:08:24;;;;;;;81.88;36.50;;;;;;;;;;5032644;28;20022;-59
2023/03/05 01:10:50;;;;;;;90.88;38.03;;;;;;;;;;5033154;28;20033;-74
2023/03/05 01:13:16;;;;;;;85.90;36.85;;;;;;;;;;5032850;28;20032;-62
2023/03/05 01:15:42;;;;;;;82.65;37.90;;;;;;;;;;5032807;28;20104;-74
2023/03/05 01:18:08;;;;;;;84.70;37.88;;;;;;;;;;5032637;28;20122;-61
2023/03/05 01:20:35;;;;;;;88.85;39.47;;;;;;;;;;5032536;28;20166;-62
2023/03/05 01:23:01;;;;;;;84.47;38.40;;;;;;;;;;5032435;28;20473;-77
2023/03/05 01:25:27;;;;;;;82.93;38.28;;;;;;;;;;5032867;28;20034;-80
2023/03/05 01:27:53;;;;;;;83.75;37.70;;;;;;;;;;5033024;28;20021;-78
2023/03/05 01:30:19;;;;;;;74.43;35.83;;;;;;;;;;5033034;28;20053;-67
2023/03/05 01:32:46;;;;;;;77.28;36.47;;;;;;;;;;5032480;28;20033;-79
2023/03/05 01:35:16;;;;;;;79.20;37.35;;;;;;;;;;5032756;28;20025;-73
2023/03/05 01:37:42;;;;;;;78.65;37.13;;;;;;;;;;5032571;28;20068;-61
2023/03/05 01:40:12;;;;;;;81.53;36.65;;;;;;;;;;5031882;28;20548;-61
2023/03/05 01:42:38;;;;;;;82.53;37.17;;;;;;;;;;5031260;28;20100;-68
2023/03/05 01:45:06;;;;;;;76.82;35.97;;;;;;;;;;5032509;28;20033;-68
2023/03/05 01:47:32;;;;;;;77.65;36.05;;;;;;;;;;5032232;28;20025;-76
2023/03/05 01:49:59;;;;;;;73.78;34.80;;;;;;;;;;5032191;28;20039;-61
2023/03/05 01:52:27;;;;;;;75.53;34.65;;;;;;;;;;5032336;28;20025;-61
2023/03/05 01:54:54;;;;;;;71.25;34.35;;;;;;;;;;5032229;28;20039;-61
2023/03/05 01:57:41;;;;;;;70.95;34.05;;;;;;;;;;5032425;28;20030;-79
2023/03/05 02:00:12;;;;;;;71.45;34.65;;;;;;;;;;5032407;28;20041;-64
2023/03/05 02:02:38;;;;;;;72.72;34.85;;;;;;;;;;5031998;28;20025;-76
2023/03/05 02:05:10;;;;;;;75.53;35.90;;;;;;;;;;5032032;28;20025;-70
2023/03/05 02:07:38;;;;;;;73.88;34.92;;;;;;;;;;5030688;28;20075;-62
2023/03/05 02:10:24;;;;;;;67.50;34.63;;;;;;;;;;5031392;28;20017;-80
2023/03/05 02:12:51;;;;;;;73.28;34.30;;;;;;;;;;5032052;28;20049;-61
2023/03/05 02:15:17;;;;;;;71.72;35.58;;;;;;;;;;5031445;28;20041;-61
2023/03/05 02:17:43;;;;;;;77.47;37.22;;;;;;;;;;5031576;28;20040;-68
2023/03/05 02:20:14;;;;;;;70.43;35.40;;;;;;;;;;5031210;28;20068;-78
2023/03/05 02:22:40;;;;;;;73.38;35.60;;;;;;;;;;5031729;28;20022;-71
2023/03/05 02:25:13;;;;;;;65.50;33.83;;;;;;;;;;5031495;28;20104;-63
2023/03/05 02:27:40;;;;;;;70.72;34.72;;;;;;;;;;5031569;28;20466;-61
2023/03/05 02:30:06;;;;;;;62.22;32.45;;;;;;;;;;5031542;28;20033;-79
2023/03/05 02:32:32;;;;;;;64.88;33.25;;;;;;;;;;5031234;28;20033;-68
2023/03/05 02:34:58;;;;;;;58.00;29.50;;;;;;;;;;5031405;28;20028;-73
2023/03/05 02:37:24;;;;;;;60.13;30.02;;;;;;;;;;5031182;28;20022;-60
2023/03/05 02:39:50;;;;;;;61.55;31.50;;;;;;;;;;5031069;28;20102;-61
2023/03/05 02:42:16;;;;;;;57.22;31.00;;;;;;;;;;5030152;28;20491;-71
2023/03/05 02:44:42;;;;;;;58.78;29.67;;;;;;;;;;5030996;28;20389;-62
2023/03/05 02:47:08;;;;;;;55.85;29.92;;;;;;;;;;5031151;28;20029;-63
2023/03/05 02:49:34;;;;;;;55.63;28.42;;;;;;;;;;5031164;28;20041;-74
2023/03/05 02:52:00;;;;;;;56.65;27.98;;;;;;;;;;5031157;28;20083;-61
2023/03/05 02:54:26;;;;;;;53.45;27.27;;;;;;;;;;5030674;28;20026;-61
2023/03/05 02:56:52;;;;;;;53.80;27.65;;;;;;;;;;5031175;28;20030;-60
2023/03/05 02:59:18;;;;;;;51.97;26.83;;;;;;;;;;5031113;28;20104;-79
2023/03/05 03:01:44;;;;;;;54.92;27.55;;;;;;;;;;5032178;28;20529;-77
2023/03/05 03:04:10;;;;;;;58.60;28.17;;;;;;;;;;5032312;28;20109;-62
2023/03/05 03:06:36;;;;;;;53.30;26.80;;;;;;;;;;5031003;28;20029;-80
2023/03/05 03:09:03;;;;;;;57.05;28.55;;;;;;;;;;5031135;28;20025;-61
2023/03/05 03:11:29;;;;;;;60.08;28.85;;;;;;;;;;5030949;28;20021;-62
2023/03/05 03:13:55;;;;;;;56.35;27.75;;;;;;;;;;5030949;28;20036;-79
2023/03/05 03:16:21;;;;;;;58.03;27.50;;;;;;;;;;5030712;28;20101;-61
2023/03/05 03:18:47;;;;;;;56.92;27.27;;;;;;;;;;5030515;28;20478;-60
2023/03/05 03:21:19;;;;;;;54.08;28.08;;;;;;;;;;5030888;28;20361;-61
2023/03/05 03:23:45;;;;;;;52.47;27.47;;;;;;;;;;5030700;28;20105;-61
2023/03/05 03:26:11;;;;;;;51.10;26.40;;;;;;;;;;5031149;28;20052;-77
2023/03/05 03:28:37;;;;;;;57.45;27.70;;;;;;;;;;5030715;28;20030;-61
2023/03/05 03:31:03;;;;;;;54.65;26.80;;;;;;;;;;5030955;28;20083;-71
2023/03/05 03:33:29;;;;;;;51.60;27.02;;;;;;;;;;5030950;28;20026;-63
2023/03/05 03:35:55;;;;;;;50.83;27.63;;;;;;;;;;5030757;28;20071;-61
2023/03/05 03:38:21;;;;;;;56.03;28.17;;;;;;;;;;5030759;28;20075;-72
2023/03/05 03:40:47;;;;;;;54.78;28.75;;;;;;;;;;5030590;28;20492;-64
2023/03/05 03:43:13;;;;;;;53.22;26.67;;;;;;;;;;5030751;28;20112;-64
2023/03/05 03:45:42;;;;;;;43.38;23.08;;;;;;;;;;5030601;28;20473;-69
2023/03/05 03:48:09;;;;;;;44.28;24.17;;;;;;;;;;5030597;28;20045;-67
2023/03/05 03:50:42;;;;;;;46.33;24.10;;;;;;;;;;5030670;28;20037;-75
2023/03/05 03:53:08;;;;;;;;;;;;;;;;;;5030935;28;20040;-63
2023/03/05 03:55:34;;;;;;;37.63;17.67;;;;;;;;;;5030590;28;19905;-70
2023/03/05 03:58:00;;;;;;;38.10;20.40;;;;;;;;;;5030709;28;20048;-79
2023/03/05 04:00:26;;;;;;;31.35;16.95;;;;;;;;;;5030468;28;20037;-65
2023/03/05 04:02:52;;;;;;;31.60;16.20;;;;;;;;;;5030374;28;20053;-60
2023/03/05 04:05:18;;;;;;;34.83;18.17;;;;;;;;;;5030683;28;20033;-61
2023/03/05 04:07:44;;;;;;;32.47;16.58;;;;;;;;;;5033784;28;20025;-73
2023/03/05 04:10:11;;;;;;;40.20;20.15;;;;;;;;;;5034267;28;20100;-77
2023/03/05 04:12:37;;;;;;;45.47;23.35;;;;;;;;;;5034255;28;20135;-61
2023/03/05 04:15:04;;;;;;;49.85;23.45;;;;;;;;;;5032385;28;20073;-70
2023/03/05 04:17:30;;;;;;;42.13;21.55;;;;;;;;;;5032724;28;20112;-62
2023/03/05 04:19:56;;;;;;;41.33;21.38;;;;;;;;;;5033796;28;20115;-80
2023/03/05 04:22:22;;;;;;;40.75;19.33;;;;;;;;;;5034038;28;20497;-70
2023/03/05 04:24:48;;;;;;;34.90;19.00;;;;;;;;;;5033522;28;20072;-80
2023/03/05 04:27:14;;;;;;;28.52;14.70;;;;;;;;;;5034096;28;20036;-62
2023/03/05 04:29:40;;;;;;;22.35;12.07;;;;;;;;;;5033802;28;20057;-60
2023/03/05 04:32:07;;;;;;;21.15;11.18;;;;;;;;;;5033847;28;20033;-67
2023/03/05 04:34:34;;;;;;;21.38;12.55;;;;;;;;;;5033647;28;20033;-78
2023/03/05 04:37:00;;;;;;;19.08;10.57;;;;;;;;;;5033646;28;20030;-67
2023/03/05 04:39:26;;;;;;;21.02;11.95;;;;;;;;;;5033770;28;20037;-61
2023/03/05 04:41:52;;;;;;;22.20;12.25;;;;;;;;;;5033392;28;20032;-60
2023/03/05 04:44:18;;;;;;;22.15;11.98;;;;;;;;;;5033384;28;20105;-63
2023/03/05 04:46:44;;;;;;;21.45;11.27;;;;;;;;;;5033262;28;20556;-80
2023/03/05 04:49:10;;;;;;;21.45;11.82;;;;;;;;;;5033357;28;20072;-61
2023/03/05 04:51:36;;;;;;;21.48;12.30;;;;;;;;;;5033487;28;20389;-64
2023/03/05 04:54:03;;;;;;;22.90;12.55;;;;;;;;;;5033352;28;20491;-61
2023/03/05 04:56:29;;;;;;;22.20;13.00;;;;;;;;;;5033188;28;20055;-60
2023/03/05 04:58:55;;;;;;;22.23;13.23;;;;;;;;;;5032739;28;20092;-61
2023/03/05 05:01:21;;;;;;;26.25;12.93;;;;;;;;;;5033462;28;20359;-66
2023/03/05 05:03:47;;;;;;;24.90;13.13;;;;;;;;;;5033083;28;20024;-60
2023/03/05 05:06:13;;;;;;;26.60;13.63;;;;;;;;;;5033067;28;20517;-63
2023/03/05 05:08:39;;;;;;;28.00;13.32;;;;;;;;;;5033175;28;20030;-60
2023/03/05 05:11:06;;;;;;;25.83;14.05;;;;;;;;;;5033277;28;20032;-78
2023/03/05 05:13:33;;;;;;;26.98;13.73;;;;;;;;;;5033001;28;20044;-70
2023/03/05 05:15:59;;;;;;;21.30;12.70;;;;;;;;;;5033492;28;20395;-61
2023/03/05 05:18:25;;;;;;;25.98;13.60;;;;;;;;;;5033005;28;20021;-78
2023/03/05 05:20:51;;;;;;;27.00;14.02;;;;;;;;;;5032479;28;20401;-79
2023/03/05 05:23:18;;;;;;;25.92;14.05;;;;;;;;;;5032912;28;20021;-70
2023/03/05 05:25:44;;;;;;;27.02;15.20;;;;;;;;;;5032436;28;20029;-64
2023/03/05 05:28:10;;;;;;;24.33;14.20;;;;;;;;;;5032945;28;20362;-61
2023/03/05 05:30:37;;;;;;;24.52;15.57;;;;;;;;;;5032711;28;20061;-61
2023/03/05 05:33:03;;;;;;;28.52;15.95;;;;;;;;;;5032658;28;20108;-64
2023/03/05 05:35:29;;;;;;;26.67;15.20;;;;;;;;;;5032596;28;20488;-60
2023/03/05 05:37:55;;;;;;;26.05;15.00;;;;;;;;;;5032471;28;20516;-77
2023/03/05 05:40:21;;;;;;;27.23;15.55;;;;;;;;;;5032058;28;20497;-67
2023/03/05 05:42:47;;;;;;;26.73;14.35;;;;;;;;;;5032685;28;20036;-79
2023/03/05 05:45:13;;;;;;;27.08;14.43;;;;;;;;;;5032127;28;20063;-62
2023/03/05 05:47:39;;;;;;;24.15;13.65;;;;;;;;;;5032504;28;20030;-68
2023/03/05 05:50:06;;;;;;;27.77;15.15;;;;;;;;;;5032209;28;20048;-80
2023/03/05 05:52:32;;;;;;;28.25;15.10;;;;;;;;;;5032241;28;20028;-62
2023/03/05 05:54:58;;;;;;;23.48;14.68;;;;;;;;;;5032277;28;20065;-80
2023/03/05 05:57:24;;;;;;;25.08;14.90;;;;;;;;;;5032484;28;20041;-75
2023/03/05 05:59:50;;;;;;;27.60;14.90;;;;;;;;;;5031962;28;20037;-63
2023/03/05 06:02:16;;;;;;;24.85;14.57;;;;;;;;;;5031724;28;20070;-84
2023/03/05 06:04:42;;;;;;;27.95;15.88;;;;;;;;;;5031885;28;20041;-66
2023/03/05 06:07:08;;;;;;;23.52;14.13;;;;;;;;;;5032083;28;20072;-64
2023/03/05 06:09:35;;;;;;;29.38;15.55;;;;;;;;;;5031796;28;20021;-66
2023/03/05 06:12:01;;;;;;;24.15;15.20;;;;;;;;;;5031964;28;20021;-61
2023/03/05 06:14:27;;;;;;;28.08;15.55;;;;;;;;;;5031667;28;20098;-60
2023/03/05 06:16:53;;;;;;;23.63;14.40;;;;;;;;;;5031683;28;20048;-60
2023/03/05 06:19:19;;;;;;;25.02;15.10;;;;;;;;;;5031432;28;20131;-60
2023/03/05 06:21:45;;;;;;;26.25;14.13;;;;;;;;;;5031687;28;20033;-81
2023/03/05 06:24:12;;;;;;;26.00;14.90;;;;;;;;;;5031789;28;20461;-61
2023/03/05 06:26:38;;;;;;;24.27;13.48;;;;;;;;;;5031554;28;20036;-61
2023/03/05 06:29:04;;;;;;;28.30;14.60;;;;;;;;;;5031295;28;20045;-80
2023/03/05 06:31:30;;;;;;;24.52;14.23;;;;;;;;;;5031730;28;20021;-75
2023/03/05 06:34:00;;;;;;;28.63;15.35;;;;;;;;;;5031495;28;20547;-64
2023/03/05 06:36:26;;;;;;;27.88;15.55;;;;;;;;;;5031599;28;20021;-61
2023/03/05 06:38:53;;;;;;;31.50;15.70;;;;;;;;;;5031268;28;20037;-80
2023/03/05 06:41:20;;;;;;;32.40;15.93;;;;;;;;;;5026672;28;20033;-61
2023/03/05 06:43:47;;;;;;;29.27;16.40;;;;;;;;;;5021059;28;20052;-82
2023/03/05 06:46:20;;;;;;;28.05;16.10;;;;;;;;;;5019006;28;20021;-61
2023/03/05 06:48:47;;;;;;;28.50;15.30;;;;;;;;;;5017025;28;20080;-61
2023/03/05 06:51:14;;;;;;;25.73;14.48;;;;;;;;;;5011561;28;20036;-62
2023/03/05 06:53:40;;;;;;;25.70;14.20;;;;;;;;;;5011389;28;20030;-79
2023/03/05 06:56:06;;;;;;;23.45;14.23;;;;;;;;;;5011446;28;20036;-62
2023/03/05 06:58:32;;;;;;;22.98;13.80;;;;;;;;;;5011004;28;20437;-62
2023/03/05 07:00:58;;;;;;;24.92;13.52;;;;;;;;;;5011088;28;20040;-62
2023/03/05 07:03:24;;;;;;;20.45;12.30;;;;;;;;;;5010920;28;20535;-68
2023/03/05 07:05:50;;;;;;;24.95;12.65;;;;;;;;;;5011190;28;20045;-81
2023/03/05 07:08:16;;;;;;;21.05;12.00;;;;;;;;;;5011111;28;20022;-61
2023/03/05 07:10:43;;;;;;;20.75;11.40;;;;;;;;;;5010907;28;20040;-70
2023/03/05 07:13:10;;;;;;;20.98;12.07;;;;;;;;;;5009629;28;20030;-71
2023/03/05 07:15:39;;;;;;;20.67;12.07;;;;;;;;;;5010830;28;20021;-67
2023/03/05 07:18:06;;;;;;;22.70;12.55;;;;;;;;;;5010587;28;20030;-69
2023/03/05 07:20:35;;;;;;;20.42;11.35;;;;;;;;;;5010703;28;20402;-61
2023/03/05 07:23:02;;;;;;;18.35;11.07;;;;;;;;;;5010733;28;20039;-78
2023/03/05 07:25:28;;;;;;;18.75;10.68;;;;;;;;;;5011122;28;20109;-61
2023/03/05 07:27:54;;;;;;;17.65;9.88;;;;;;;;;;5010856;28;20101;-67
2023/03/05 07:30:20;;;;;;;20.63;11.45;;;;;;;;;;5029770;28;20117;-65
2023/03/05 07:32:46;;;;;;;21.60;11.30;;;;;;;;;;5039544;28;20026;-63
2023/03/05 07:35:13;;;;;;;20.05;10.85;;;;;;;;;;5019582;28;20121;-72
2023/03/05 07:37:39;;;;;;;19.17;11.52;;;;;;;;;;5031732;28;20088;-70
2023/03/05 07:40:09;;;;;;;19.13;10.95;;;;;;;;;;5027527;28;20423;-68
2023/03/05 07:42:36;;;;;;;22.50;12.73;;;;;;;;;;5034267;28;20445;-77
2023/03/05 07:45:05;;;;;;;22.65;12.23;;;;;;;;;;5035546;28;20056;-77
2023/03/05 07:47:31;;;;;;;20.95;12.27;;;;;;;;;;5014915;28;20022;-61
2023/03/05 07:49:57;;;;;;;18.08;10.82;;;;;;;;;;5013897;28;20053;-66
2023/03/05 07:52:23;;;;;;;22.80;12.27;;;;;;;;;;5014536;28;20032;-60
2023/03/05 07:54:49;;;;;;;18.85;11.50;;;;;;;;;;5014653;28;20452;-59
2023/03/05 07:57:15;;;;;;;19.90;11.60;;;;;;;;;;5014486;28;20551;-63
2023/03/05 07:59:42;;;;;;;21.33;11.75;;;;;;;;;;5014300;28;20065;-62
2023/03/05 08:02:10;;;;;;;20.45;11.85;;;;;;;;;;5025323;28;20409;-61
2023/03/05 08:04:37;;;;;;;20.60;11.88;;;;;;;;;;5033691;28;20112;-66
2023/03/05 08:07:03;;;;;;;22.90;12.93;;;;;;;;;;5033982;28;20514;-72
2023/03/05 08:09:29;;;;;;;19.75;11.82;;;;;;;;;;5033732;28;20029;-61
2023/03/05 08:11:55;;;;;;;21.73;10.75;;;;;;;;;;5033728;28;20423;-69
2023/03/05 08:14:21;;;;;;;19.35;11.07;;;;;;;;;;5034879;28;20087;-61
2023/03/05 08:16:51;;;;;;;20.75;12.13;;;;;;;;;;5033502;28;20018;-68
2023/03/05 08:19:18;;;;;;;20.85;11.13;;;;;;;;;;5033521;28;20045;-62
2023/03/05 08:21:44;;;;;;;19.60;10.65;;;;;;;;;;5033558;28;20132;-65
2023/03/05 08:24:10;;;;;;;16.13;9.52;;;;;;;;;;5033935;28;20101;-67
2023/03/05 08:26:37;;;;;;;19.55;11.20;;;;;;;;;;5033617;28;20029;-66
2023/03/05 08:29:03;;;;;;;22.15;12.45;;;;;;;;;;5023878;28;20454;-72
2023/03/05 08:31:30;;;;;;;17.23;10.18;;;;;;;;;;5021349;28;20033;-61
2023/03/05 08:33:57;;;;;;;17.88;10.57;;;;;;;;;;5021977;28;20097;-70
2023/03/05 08:36:23;;;;;;;17.45;10.40;;;;;;;;;;5021987;28;20025;-63
2023/03/05 08:38:50;;;;;;;21.67;12.52;;;;;;;;;;5025389;28;20861;-63
2023/03/05 08:41:16;;;;;;;19.48;11.13;;;;;;;;;;5033050;28;20137;-66
2023/03/05 08:43:42;;;;;;;19.63;11.43;;;;;;;;;;5031134;28;20025;-71
2023/03/05 08:46:10;;;;;;;19.48;11.95;;;;;;;;;;5030060;28;20082;-66
2023/03/05 08:48:36;;;;;;;27.17;15.55;;;;;;;;;;5041625;28;20473;-68
2023/03/05 08:51:06;;;;;;;19.60;11.80;;;;;;;;;;5047588;28;20614;-67
2023/03/05 08:53:32;;;;;;;19.42;11.80;;;;;;;;;;5026025;28;20471;-60
2023/03/05 08:55:58;;;;;;;18.98;11.85;;;;;;;;;;5020951;28;20118;-60
2023/03/05 08:58:25;;;;;;;19.38;12.15;;;;;;;;;;5021349;28;20018;-62
2023/03/05 09:00:52;;;;;;;16.90;11.40;;;;;;;;;;5045414;28;20067;-61
2023/03/05 09:03:18;;;;;;;22.83;12.20;;;;;;;;;;5036876;28;20508;-71
2023/03/05 09:05:45;;;;;;;21.70;11.93;;;;;;;;;;5035821;28;20811;-66
2023/03/05 09:08:11;;;;;;;19.00;11.38;;;;;;;;;;5034095;28;20051;-65
2023/03/05 09:10:37;;;;;;;18.52;11.55;;;;;;;;;;5036280;28;20032;-66
2023/03/05 09:13:03;;;;;;;21.27;11.80;;;;;;;;;;5037107;28;20127;-66
2023/03/05 09:15:30;;;;;;;27.23;11.93;;;;;;;;;;5024226;28;20095;-61
2023/03/05 09:17:57;;;;;;;20.05;11.93;;;;;;;;;;5023254;28;20055;-61
2023/03/05 09:20:23;;;;;;;19.10;11.90;;;;;;;;;;5019867;28;20086;-65
2023/03/05 09:22:52;;;;;;;23.38;12.52;;;;;;;;;;5023967;28;20029;-65
2023/03/05 09:25:18;;;;;;;19.83;11.88;;;;;;;;;;5032728;28;20542;-63
2023/03/05 09:27:44;;;;;;;22.05;12.27;;;;;;;;;;5036676;28;20043;-60
2023/03/05 09:30:11;;;;;;;19.25;12.05;;;;;;;;;;5043193;28;20458;-63
2023/03/05 09:32:37;;;;;;;22.23;13.00;;;;;;;;;;5043645;28;20033;-61
2023/03/05 09:35:04;;;;;;;19.48;11.82;;;;;;;;;;5036462;28;20032;-69
2023/03/05 09:37:30;;;;;;;22.23;13.48;;;;;;;;;;5048261;28;20029;-67
2023/03/05 09:39:56;;;;;;;21.92;12.88;;;;;;;;;;5037995;28;20068;-61
2023/03/05 09:42:22;;;;;;;21.98;13.05;;;;;;;;;;5041625;28;20029;-68
2023/03/05 09:45:21;;;;;;;20.85;12.38;;;;;;;;;;5045459;28;20396;-60
2023/03/05 09:48:03;;;;;;;18.73;12.05;;;;;;;;;;5061359;28;20517;-64
2023/03/05 09:50:32;;;;;;;;;;;;;;;;;;5069537;28;20063;-63
2023/03/05 09:53:16;;;;;;;20.25;13.10;;;;;;;;;;5066310;28;19916;-65
2023/03/05 09:55:47;;;;;;;23.42;15.10;;;;;;;;;;5069114;28;20039;-62
2023/03/05 09:58:19;;;;;;;21.42;13.00;;;;;;;;;;5068282;28;20048;-63
2023/03/05 10:00:49;;;;;;;21.85;12.98;;;;;;;;;;5069258;28;20037;-64
2023/03/05 10:03:21;;;;;;;22.02;12.13;;;;;;;;;;5068359;28;20407;-64
2023/03/05 10:05:50;;;;;;;21.35;12.57;;;;;;;;;;5065353;28;20111;-60
2023/03/05 10:08:18;;;;;;;22.52;13.05;;;;;;;;;;5067694;28;20064;-63
2023/03/05 10:10:48;;;;;;;20.17;12.82;;;;;;;;;;5068485;28;20156;-65
2023/03/05 10:13:34;;;;;;;21.63;13.15;;;;;;;;;;5068552;28;20115;-63
2023/03/05 10:16:19;;;;;;;19.48;12.65;;;;;;;;;;5068166;28;20028;-61
2023/03/05 10:19:03;;;;;;;23.75;12.98;;;;;;;;;;5068376;28;20493;-60
2023/03/05 10:21:38;;;;;;;33.85;15.88;;;;;;;;;;5068343;28;20491;-61
2023/03/05 10:24:10;;;;;;;18.63;11.73;;;;;;;;;;5051276;28;20025;-61
2023/03/05 10:26:39;;;;;;;26.25;14.27;;;;;;;;;;5036876;28;20029;-62
2023/03/05 10:29:18;;;;;;;20.30;12.38;;;;;;;;;;5044075;28;20036;-61
2023/03/05 10:31:44;;;;;;;23.38;13.45;;;;;;;;;;5042737;28;20037;-61
2023/03/05 10:34:20;;;;;;;24.20;13.68;;;;;;;;;;5034845;28;20041;-60
2023/03/05 10:37:02;;;;;;;22.05;13.40;;;;;;;;;;5026461;28;20388;-60
2023/03/05 10:39:51;;;;;;;26.98;12.93;;;;;;;;;;5040896;28;20481;-59
2023/03/05 10:42:26;;;;;;;13.27;8.13;;;;;;;;;;5043351;28;20406;-64
2023/03/05 10:44:53;;;;;;;14.18;8.00;;;;;;;;;;5020240;28;20036;-66
2023/03/05 10:47:22;;;;;;;20.40;9.77;;;;;;;;;;5041397;28;20112;-63
2023/03/05 10:49:53;;;;;;;17.40;9.98;;;;;;;;;;5043386;28;20037;-63
2023/03/05 10:52:40;;;;;;;19.27;10.07;;;;;;;;;;5033642;28;20029;-65
2023/03/05 10:55:16;;;;;;;17.42;10.90;;;;;;;;;;5043758;28;20080;-64
2023/03/05 10:57:43;;;;;;;17.27;10.13;;;;;;;;;;5042288;28;20028;-59
2023/03/05 11:00:26;;;;;;;14.40;8.20;;;;;;;;;;5034832;28;20104;-63
2023/03/05 11:03:00;;;;;;;18.92;10.45;;;;;;;;;;5034008;28;20021;-66
2023/03/05 11:05:38;;;;;;;15.27;7.78;;;;;;;;;;5039901;28;20080;-60
2023/03/05 11:08:22;;;;;;;12.27;6.70;;;;;;;;;;5045387;28;20025;-61
2023/03/05 11:11:01;;;;;;;12.52;6.30;;;;;;;;;;5019486;28;20059;-68
2023/03/05 11:13:28;;;;;;;10.63;6.00;;;;;;;;;;5047170;28;20552;-67
2023/03/05 11:16:05;;;;;;;11.48;6.03;;;;;;;;;;5036153;28;20116;-61
2023/03/05 11:18:33;;;;;;;11.77;6.45;;;;;;;;;;5046341;28;20480;-61
2023/03/05 11:21:19;;;;;;;9.18;5.97;;;;;;;;;;5035560;28;20041;-61
2023/03/05 11:24:05;;;;;;;13.27;7.25;;;;;;;;;;5036954;28;20041;-62
2023/03/05 11:26:31;;;;;;;17.85;11.20;;;;;;;;;;5046441;28;20145;-64
2023/03/05 11:28:59;;;;;;;19.80;11.40;;;;;;;;;;5036348;28;20044;-70
2023/03/05 11:31:32;;;;;;;17.65;10.00;;;;;;;;;;5042274;28;20488;-69
2023/03/05 11:34:01;;;;;;;12.90;6.47;;;;;;;;;;5032809;28;20033;-70
2023/03/05 11:36:30;;;;;;;18.83;9.52;;;;;;;;;;5040660;28;20376;-70
2023/03/05 11:39:06;;;;;;;19.05;11.10;;;;;;;;;;5044251;28;20033;-66
2023/03/05 11:41:35;;;;;;;15.88;10.57;;;;;;;;;;5039769;28;20463;-62
2023/03/05 11:44:04;;;;;;;19.65;11.43;;;;;;;;;;5047491;28;20735;-61
2023/03/05 11:46:36;;;;;;;11.57;6.97;;;;;;;;;;5033459;28;20405;-61
2023/03/05 11:49:03;;;;;;;10.88;6.45;;;;;;;;;;5043415;28;20064;-61
2023/03/05 11:51:35;;;;;;;13.32;7.07;;;;;;;;;;5039918;28;20056;-61
2023/03/05 11:54:01;;;;;;;;;;;;;;;;;;5038847;28;20084;-68
2023/03/05 11:56:30;;;;;;;11.50;6.57;;;;;;;;;;5057834;28;19913;-68
2023/03/05 11:59:04;;;;;;;10.40;6.38;;;;;;;;;;5037359;28;20029;-61
2023/03/05 12:01:32;;;;;;;14.05;7.63;;;;;;;;;;5027051;28;20414;-64
2023/03/05 12:03:59;;;;;;;13.95;8.32;;;;;;;;;;5034449;28;20017;-60
2023/03/05 12:06:31;;;;;;;16.63;10.15;;;;;;;;;;5040383;28;20025;-61
2023/03/05 12:08:58;;;;;;;19.08;11.43;;;;;;;;;;5043413;28;20021;-60
2023/03/05 12:11:29;;;;;;;19.27;12.02;;;;;;;;;;5043539;28;20476;-63
2023/03/05 12:13:55;;;;;;;16.55;10.48;;;;;;;;;;5040623;28;20063;-64
2023/03/05 12:16:27;;;;;;;18.13;11.60;;;;;;;;;;5049682;28;20077;-67
2023/03/05 12:19:21;;;;;;;20.58;12.52;;;;;;;;;;5045037;28;20128;-63
2023/03/05 12:21:47;;;;;;;;;;;;;;;;;;5042144;28;20045;-61
2023/03/05 12:24:22;;;;;;;13.38;8.80;;;;;;;;;;5041271;28;19913;-61
2023/03/05 12:26:55;;;;;;;11.48;6.70;;;;;;;;;;5024336;28;20032;-61
2023/03/05 12:29:40;;;;;;;13.77;7.68;;;;;;;;;;5053526;28;20021;-67
2023/03/05 12:32:24;;;;;;;14.57;7.40;;;;;;;;;;5054131;28;20032;-60
2023/03/05 12:34:56;;;;;;;11.73;6.85;;;;;;;;;;5053497;28;20023;-61
2023/03/05 12:37:22;;;;;;;12.20;7.40;;;;;;;;;;5052147;28;20052;-61
2023/03/05 12:39:51;;;;;;;18.00;9.13;;;;;;;;;;5041357;28;20021;-62
2023/03/05 12:42:29;;;;;;;11.73;6.63;;;;;;;;;;5033132;28;20021;-61
2023/03/05 12:45:10;;;;;;;20.58;8.50;;;;;;;;;;5032564;28;20025;-60
2023/03/05 12:47:37;;;;;;;11.95;6.75;;;;;;;;;;5033428;28;20056;-61
2023/03/05 12:50:03;;;;;;;14.32;6.68;;;;;;;;;;5033318;28;20409;-65
2023/03/05 12:52:31;;;;;;;15.80;8.52;;;;;;;;;;5033186;28;20197;-61
2023/03/05 12:55:20;;;;;;;11.80;6.40;;;;;;;;;;5033193;28;20465;-61
2023/03/05 12:57:47;;;;;;;15.32;8.15;;;;;;;;;;5030796;28;20409;-64
2023/03/05 13:00:20;;;;;;;14.55;7.53;;;;;;;;;;5030360;28;20136;-62
2023/03/05 13:02:46;;;;;;;;;;;;;;;;;;5030126;28;20374;-62
2023/03/05 13:05:18;;;;;;;22.58;8.02;;;;;;;;;;5030590;28;19912;-61
2023/03/05 13:07:44;;;;;;;12.20;6.38;;;;;;;;;;5030597;28;20025;-60
2023/03/05 13:10:22;;;;;;;13.55;7.50;;;;;;;;;;5030346;28;20029;-62
2023/03/05 13:12:52;;;;;;;17.02;8.73;;;;;;;;;;5030616;28;20108;-61
2023/03/05 13:15:19;;;;;;;20.55;12.32;;;;;;;;;;5029891;28;20041;-63
2023/03/05 13:17:55;;;;;;;15.02;7.97;;;;;;;;;;5030090;28;20029;-66
2023/03/05 13:20:27;;;;;;;14.00;7.53;;;;;;;;;;5030165;28;20081;-61
2023/03/05 13:23:05;;;;;;;14.50;7.13;;;;;;;;;;5030094;28;20129;-61
2023/03/05 13:25:31;;;;;;;11.20;6.43;;;;;;;;;;5029874;28;20033;-61
2023/03/05 13:28:04;;;;;;;13.15;6.82;;;;;;;;;;5030013;28;20330;-61
2023/03/05 13:30:30;;;;;;;12.75;7.60;;;;;;;;;;5029664;28;20033;-61
2023/03/05 13:33:01;;;;;;;14.18;7.75;;;;;;;;;;5029885;28;20104;-62
2023/03/05 13:35:28;;;;;;;15.10;7.45;;;;;;;;;;5016194;28;20221;-62
2023/03/05 13:37:54;;;;;;;12.98;7.57;;;;;;;;;;5019833;28;20064;-64
2023/03/05 13:40:28;;;;;;;17.50;9.15;;;;;;;;;;5024639;28;20045;-65
2023/03/05 13:42:55;;;;;;;15.77;8.77;;;;;;;;;;5019933;28;20057;-60
2023/03/05 13:45:21;;;;;;;11.18;7.82;;;;;;;;;;5024610;28;20108;-64
2023/03/05 13:48:00;;;;;;;12.63;6.93;;;;;;;;;;5029403;28;20021;-65
2023/03/05 13:50:26;;;;;;;17.77;8.73;;;;;;;;;;5032083;28;20091;-62
2023/03/05 13:52:52;;;;;;;14.38;7.82;;;;;;;;;;5031137;28;20028;-69
2023/03/05 13:55:18;;;;;;;15.15;8.30;;;;;;;;;;5031945;28;20024;-68
2023/03/05 13:57:46;;;;;;;15.93;7.75;;;;;;;;;;5031742;28;20029;-67
2023/03/05 14:00:31;;;;;;;11.13;6.65;;;;;;;;;;5031744;28;20045;-64
2023/03/05 14:02:58;;;;;;;19.88;9.20;;;;;;;;;;5031946;28;20068;-69
2023/03/05 14:05:24;;;;;;;17.55;8.27;;;;;;;;;;5031225;28;20539;-65
2023/03/05 14:07:51;;;;;;;16.13;8.73;;;;;;;;;;5030123;28;20041;-63
2023/03/05 14:10:23;;;;;;;14.65;8.93;;;;;;;;;;5040956;28;20047;-74
2023/03/05 14:12:50;;;;;;;15.07;8.23;;;;;;;;;;5042561;28;20040;-64
2023/03/05 14:15:34;;;;;;;13.25;6.97;;;;;;;;;;5042936;28;20029;-63
2023/03/05 14:18:13;;;;;;;13.63;7.70;;;;;;;;;;5034346;28;20040;-66
2023/03/05 14:20:41;;;;;;;15.68;8.63;;;;;;;;;;5025092;28;20049;-64
2023/03/05 14:23:25;;;;;;;16.60;8.68;;;;;;;;;;5037300;28;20026;-72
2023/03/05 14:25:52;;;;;;;13.20;8.00;;;;;;;;;;5033971;28;20021;-63
2023/03/05 14:28:18;;;;;;;11.57;6.72;;;;;;;;;;5040940;28;20065;-62